Terminal Aerodrome Forecast
Issued by NWS

Home | Current Version | Previous Version | Text Only | Print | Product List | Glossary On
Versions: 1 2 3 4 5 6 7 8 9 10 11 12 13
000
FTUS45 KPIH 291100
TAFSUN
TAF
KSUN 291120Z 2912/3012 30007KT P6SM BKN150
     FM291700 16007KT P6SM VCTS SCT070CB BKN120
     FM300400 31007KT P6SM BKN120
      AMD LTD TO CLD VIS AND WIND TIL 291300=

USA.gov is the U.S. government's official web portal to all federal, state and local government web resources and services.